Sunday, May 27, 2018, 1:34 PM GMT
Back to Local

CYTZ, Toronto Island Airport Automated Reporting Station

Location: , , Canada Lat: 43.633
Local Time: 1:34 PM GMT (13:34 GMT) Lon: -79.4
Time Zone: GMT Elev: 252 ft

Show me the last for .
Show Decoded

2018-05-27 13:13 METAR CYTZ 271313Z AUTO 09009KT 8SM SCT002 15/14 A2993 RMK SLP137 =
2018-05-27 13:10 METAR CYTZ 271310Z AUTO 09010KT 3SM BR BKN002 15/14 A2993 RMK SLP137 =
2018-05-27 13:06 METAR CYTZ 271306Z AUTO 09010KT 1 1/2SM BR BKN002 15/14 A2993 RMK SLP137 =
2018-05-27 13:00 METAR CYTZ 271300Z AUTO 08010KT 1 1/4SM BR OVC002 15/14 A2993 RMK VIS VRB 3/4-1
                 3/4 SLP136 =
2018-05-27 12:54 METAR CYTZ 271254Z AUTO 09011KT 1SM R08/3500VP6000FT/ BR VV002 15/14 A2993 RMK
                 VIS VRB 1/2-2 SLP136 =
2018-05-27 12:45 METAR CYTZ 271245Z AUTO 08008KT 3/4SM R08/4000V6000FT/ BR VV002 15/14 A2992 RMK
                 SLP135 =
2018-05-27 12:15 METAR CYTZ 271215Z AUTO 08009KT 3/4SM R08/2800V5000FT/ -RA BR VV002 15/14 A2993
                 RMK SLP136 =
2018-05-27 12:12 METAR CYTZ 271212Z AUTO 08008KT 1SM R08/2800V5000FT/ -RA BR VV002 15/14 A2993
                 RMK SLP136 =
2018-05-27 12:00 METAR CYTZ 271200Z AUTO 07010KT 3/8SM R08/2200FT/N -RA FG VV002 15/14 A2992 RMK
                 SLP134 =
2018-05-27 11:46 METAR CYTZ 271146Z AUTO 07009KT 1/2SM R08/2000FT/N -RA FG VV002 15/14 A2992 RMK
                 SLP132 =
2018-05-27 11:42 METAR CYTZ 271142Z AUTO 07009KT 3/4SM R08/3000V5500FT/ BR VV002 15/14 A2992 RMK
                 SLP132 =
2018-05-27 11:41 METAR CYTZ 271141Z AUTO 07009KT 3/4SM R08/3000VP6000FT/ BR OVC003 15/14 A2992
                 RMK SLP132 =
2018-05-27 11:37 METAR CYTZ 271137Z AUTO 07010KT 1 1/4SM BR OVC003 15/14 A2992 RMK SLP132 =
2018-05-27 11:23 METAR CYTZ 271123Z AUTO 08010KT 2 1/2SM BR OVC003 15/14 A2991 RMK SLP131 DENSITY
                 ALT 300FT =
2018-05-27 11:12 METAR CYTZ 271112Z AUTO 07011KT 4SM BR OVC003 15/14 A2991 RMK SLP129 DENSITY ALT
                 300FT =
2018-05-27 11:00 METAR CYTZ 271100Z AUTO 07012KT 4SM BR OVC005 15/15 A2990 RMK SLP128 DENSITY ALT
                 300FT =
2018-05-27 10:48 METAR CYTZ 271048Z AUTO 07013KT 5SM BR BKN005 15/14 A2990 RMK SLP126 DENSITY ALT
                 300FT =
2018-05-27 10:40 METAR CYTZ 271040Z AUTO 07012KT 7SM BKN005 15/14 A2990 RMK SLP126 DENSITY ALT
                 300FT =
2018-05-27 10:00 METAR CYTZ 271000Z AUTO 07012KT 9SM CLR 16/14 A2988 RMK SLP121 DENSITY ALT 400FT
                 =
2018-05-27 09:00 METAR CYTZ 270900Z AUTO 07011KT 9SM CLR 17/15 A2987 RMK SLP117 DENSITY ALT 500FT
                 =
2018-05-27 08:00 METAR CYTZ 270800Z AUTO 08007KT 9SM CLR 17/14 A2987 RMK SLP115 DENSITY ALT 500FT
                 =
2018-05-27 07:00 METAR CYTZ 270700Z AUTO 08009KT 9SM CLR 17/14 A2987 RMK SLP114 DENSITY ALT 500FT
                 =
2018-05-27 06:00 METAR CYTZ 270600Z AUTO 07008KT 9SM CLR 17/14 A2986 RMK SLP113 DENSITY ALT 600FT
                 =
2018-05-27 05:00 METAR CYTZ 270500Z AUTO 07007KT 9SM FEW160 17/14 A2987 RMK SLP115 DENSITY ALT
                 500FT =
2018-05-27 04:00 METAR CYTZ 270400Z AUTO 06006KT 9SM CLR 16/13 A2987 RMK SLP118 DENSITY ALT 400FT
                 =
2018-05-27 03:00 METAR CYTZ 270300Z AUTO 06011KT 9SM FEW004 BKN130 BKN160 14/14 A2987 RMK SLP118
                 =
2018-05-27 02:49 METAR CYTZ 270249Z AUTO 07011KT 8SM SCT004 OVC130 14/14 A2987 RMK SLP118 =
2018-05-27 02:15 METAR CYTZ 270215Z AUTO 08011G17KT 9SM BKN004 OVC160 15/14 A2987 RMK SLP116
                 DENSITY ALT 300FT =
2018-05-27 02:12 METAR CYTZ 270212Z AUTO 08010G17KT 9SM BKN006 OVC160 15/14 A2987 RMK PRESRR
                 SLP116 DENSITY ALT 300FT =
2018-05-27 02:00 METAR CYTZ 270200Z AUTO 08012KT 9SM OVC160 15/14 A2986 RMK SLP112 DENSITY ALT
                 400FT =
2018-05-27 01:00 METAR CYTZ 270100Z AUTO 08013KT 9SM SCT120 BKN140 OVC160 17/14 A2983 RMK SLP103
                 DENSITY ALT 600FT =
2018-05-27 00:00 METAR CYTZ 270000Z AUTO 09010KT 9SM BKN120 OVC140 20/15 A2981 RMK SLP097 DENSITY
                 ALT 1000FT =
2018-05-26 23:00 METAR CYTZ 262300Z AUTO 02007G15KT 9SM SCT110 BKN130 23/16 A2980 RMK SLP091
                 DENSITY ALT 1300FT =
2018-05-26 22:00 METAR CYTZ 262200Z AUTO 08004KT 050V200 9SM FEW110 23/15 A2978 RMK SLP084
                 DENSITY ALT 1300FT =
2018-05-26 21:00 METAR CYTZ 262100Z AUTO 17005KT 9SM CLR 24/15 A2977 RMK SLP082 DENSITY ALT
                 1500FT =
2018-05-26 20:00 METAR CYTZ 262000Z AUTO 17006KT 9SM CLR 24/13 A2977 RMK SLP082 DENSITY ALT
                 1500FT =
2018-05-26 19:00 METAR CYTZ 261900Z AUTO 13004KT 090V250 9SM CLR 24/15 A2978 RMK SLP087 DENSITY
                 ALT 1500FT =
2018-05-26 18:00 METAR CYTZ 261800Z AUTO 26003KT 220V290 9SM CLR 20/13 A2980 RMK SLP094 DENSITY
                 ALT 1000FT =
2018-05-26 17:00 METAR CYTZ 261700Z AUTO 21003KT 9SM CLR 20/13 A2980 RMK SLP094 DENSITY ALT 900FT
                 =
2018-05-26 16:00 METAR CYTZ 261600Z AUTO 25004KT 200V260 9SM CLR 17/13 A2980 RMK SLP093 DENSITY
                 ALT 700FT =
2018-05-26 15:00 METAR CYTZ 261500Z AUTO 25004KT 9SM CLR 17/12 A2980 RMK SLP094 DENSITY ALT 600FT
                 =
2018-05-26 14:00 METAR CYTZ 261400Z AUTO 23003KT 9SM CLR 16/11 A2980 RMK SLP092 DENSITY ALT 500FT
                 =

Support USWX by starting your Amazon purchase here.